createdAt,value
2018-03-02T00:01:08.105Z,46.80
2018-03-02T00:03:36.387Z,47.00
2018-03-02T00:06:04.661Z,47.10
2018-03-02T00:08:32.928Z,46.90
2018-03-02T00:11:01.211Z,47.00
2018-03-02T00:13:29.472Z,47.00
2018-03-02T00:15:57.755Z,47.10
2018-03-02T00:18:26.279Z,47.10
2018-03-02T00:20:54.559Z,47.20
2018-03-02T00:23:22.828Z,47.10
2018-03-02T00:25:51.123Z,47.40
2018-03-02T00:28:19.379Z,47.50
2018-03-02T00:30:47.652Z,47.50
2018-03-02T00:33:16.979Z,47.40
2018-03-02T00:35:45.250Z,47.50
2018-03-02T00:38:13.505Z,47.60
2018-03-02T00:40:41.780Z,47.70
2018-03-02T00:43:10.042Z,47.80
2018-03-02T00:45:39.100Z,48.00
2018-03-02T00:48:07.479Z,48.00
2018-03-02T00:50:35.746Z,48.10
2018-03-02T00:53:04.006Z,48.10
2018-03-02T00:55:32.285Z,48.10
2018-03-02T00:58:00.546Z,48.10
2018-03-02T01:00:29.589Z,48.30
2018-03-02T01:02:57.863Z,48.30
2018-03-02T01:05:26.136Z,48.40
2018-03-02T01:07:54.433Z,48.40
2018-03-02T01:10:22.713Z,48.50
2018-03-02T01:12:51.011Z,48.50
2018-03-02T01:15:19.380Z,48.60
2018-03-02T01:17:47.662Z,48.60
2018-03-02T01:20:16.055Z,48.70
2018-03-02T01:22:44.326Z,48.90
2018-03-02T01:25:12.710Z,49.00
2018-03-02T01:27:40.967Z,49.20
2018-03-02T01:30:09.242Z,49.20
2018-03-02T01:32:37.506Z,49.30
2018-03-02T01:35:05.797Z,49.40
2018-03-02T01:37:34.081Z,49.40
2018-03-02T01:40:02.339Z,49.60
2018-03-02T01:42:30.659Z,49.70
2018-03-02T01:44:58.913Z,49.60
2018-03-02T01:47:27.225Z,49.80
2018-03-02T01:49:55.510Z,49.90
2018-03-02T01:52:23.794Z,50.10
2018-03-02T01:54:52.045Z,50.00
2018-03-02T01:57:20.357Z,50.20
2018-03-02T01:59:48.634Z,50.30
2018-03-02T02:02:16.915Z,50.30
2018-03-02T02:04:45.181Z,50.40
2018-03-02T02:07:13.450Z,50.50
2018-03-02T02:09:41.715Z,50.60
2018-03-02T02:12:10.851Z,50.80
2018-03-02T02:14:39.115Z,50.80
2018-03-02T02:17:07.390Z,50.80
2018-03-02T02:19:35.653Z,51.00
2018-03-02T02:22:03.974Z,51.00
2018-03-02T02:24:32.218Z,51.10
2018-03-02T02:27:00.550Z,51.20
2018-03-02T02:29:28.810Z,51.30
2018-03-02T02:31:57.238Z,51.40
2018-03-02T02:34:25.453Z,51.40
2018-03-02T02:36:53.734Z,51.40
2018-03-02T02:39:21.995Z,51.40
2018-03-02T02:41:51.138Z,51.70
2018-03-02T02:44:19.408Z,51.70
2018-03-02T02:46:47.698Z,52.40
2018-03-02T02:49:15.971Z,51.90
2018-03-02T02:51:44.239Z,51.90
2018-03-02T02:54:12.505Z,51.90
2018-03-02T02:56:40.822Z,52.20
2018-03-02T02:59:09.082Z,52.30
2018-03-02T03:01:37.383Z,52.30
2018-03-02T03:04:05.660Z,52.30
2018-03-02T03:06:33.958Z,52.40
2018-03-02T03:09:02.218Z,52.50
2018-03-02T03:11:30.489Z,52.50
2018-03-02T03:13:58.743Z,52.50
2018-03-02T03:16:27.024Z,52.90
2018-03-02T03:18:55.283Z,54.00
2018-03-02T03:21:24.330Z,55.00
2018-03-02T03:23:52.596Z,55.00
2018-03-02T03:26:20.901Z,55.30
2018-03-02T03:28:49.159Z,55.40
2018-03-02T03:31:17.537Z,55.30
2018-03-02T03:33:45.791Z,55.40
2018-03-02T03:36:14.838Z,55.80
2018-03-02T03:38:44.129Z,56.10
2018-03-02T03:41:12.407Z,56.10
2018-03-02T03:43:40.730Z,56.40
2018-03-02T03:46:09.037Z,56.60
2018-03-02T03:48:37.298Z,56.70
2018-03-02T03:51:05.623Z,56.90
2018-03-02T03:53:33.939Z,57.00
2018-03-02T03:56:02.324Z,57.10
2018-03-02T03:58:30.739Z,57.40
2018-03-02T04:00:59.015Z,57.40
2018-03-02T04:03:27.283Z,57.40
2018-03-02T04:05:55.567Z,57.40
2018-03-02T04:08:23.830Z,57.60
2018-03-02T04:10:52.095Z,57.60
2018-03-02T04:13:20.359Z,57.90
2018-03-02T04:15:48.635Z,58.20
2018-03-02T04:18:16.898Z,58.40
2018-03-02T04:20:45.987Z,59.00
2018-03-02T04:23:14.670Z,59.00
2018-03-02T04:25:42.907Z,59.40
2018-03-02T04:28:11.173Z,59.20
2018-03-02T04:30:39.446Z,59.40
2018-03-02T04:33:07.722Z,59.30
2018-03-02T04:35:36.052Z,59.40
2018-03-02T04:38:04.332Z,59.20
2018-03-02T04:40:32.586Z,59.20
2018-03-02T04:43:00.891Z,59.30
2018-03-02T04:45:29.176Z,59.40
2018-03-02T04:47:57.556Z,59.70
2018-03-02T04:50:25.810Z,60.00
2018-03-02T04:52:54.131Z,60.00
2018-03-02T04:55:22.371Z,60.20
2018-03-02T04:57:50.674Z,60.30
2018-03-02T05:00:18.942Z,60.40
2018-03-02T05:02:47.217Z,61.00
2018-03-02T05:05:15.506Z,60.90
2018-03-02T05:07:43.779Z,60.90
2018-03-02T05:10:12.033Z,60.80
2018-03-02T05:12:40.303Z,60.90
2018-03-02T05:15:09.341Z,61.80
2018-03-02T05:17:37.606Z,61.70
2018-03-02T05:20:05.882Z,61.60
2018-03-02T05:22:34.157Z,61.70
2018-03-02T05:27:31.258Z,61.80
2018-03-02T05:29:59.508Z,61.80
2018-03-02T05:32:27.791Z,61.80
2018-03-02T05:34:58.196Z,61.90
2018-03-02T05:37:27.864Z,62.50
2018-03-02T05:39:56.140Z,62.40
2018-03-02T05:42:24.427Z,62.60
2018-03-02T05:44:52.686Z,62.70
2018-03-02T05:47:20.987Z,62.60
2018-03-02T05:49:49.251Z,62.60
2018-03-02T05:52:17.574Z,63.40
2018-03-02T05:54:45.842Z,62.70
2018-03-02T05:57:14.358Z,62.70
2018-03-02T05:59:43.013Z,62.80
2018-03-02T06:02:11.281Z,63.00
2018-03-02T06:04:39.571Z,63.50
2018-03-02T06:07:07.850Z,63.60
2018-03-02T06:09:36.134Z,63.70
2018-03-02T06:12:04.413Z,63.80
2018-03-02T06:14:32.678Z,64.00
2018-03-02T06:17:00.966Z,64.30
2018-03-02T06:19:29.246Z,64.30
2018-03-02T06:21:57.518Z,64.30
2018-03-02T06:24:25.815Z,64.40
2018-03-02T06:26:54.185Z,64.80
2018-03-02T06:29:22.451Z,64.20
2018-03-02T06:31:50.721Z,64.10
2018-03-02T06:34:18.992Z,64.10
2018-03-02T06:36:48.129Z,64.50
2018-03-02T06:39:16.404Z,64.50
2018-03-02T06:41:44.691Z,64.40
2018-03-02T06:44:12.946Z,64.40
2018-03-02T06:46:41.226Z,64.10
2018-03-02T06:49:09.499Z,64.30
2018-03-02T06:51:37.783Z,64.50
2018-03-02T06:54:06.786Z,64.80
2018-03-02T06:56:35.086Z,64.80
2018-03-02T06:59:03.369Z,64.60
2018-03-02T07:01:31.660Z,64.40
2018-03-02T07:03:59.912Z,64.80
2018-03-02T07:06:28.230Z,65.20
2018-03-02T07:08:56.515Z,65.00
2018-03-02T07:11:24.795Z,64.60
2018-03-02T07:13:54.578Z,64.20
2018-03-02T07:16:22.869Z,64.10
2018-03-02T07:18:51.250Z,64.00
2018-03-02T07:21:19.511Z,63.80
2018-03-02T07:26:26.448Z,63.90
2018-03-02T07:28:54.723Z,64.10
2018-03-02T07:31:22.994Z,64.20
2018-03-02T07:33:51.367Z,63.80
2018-03-02T07:36:19.634Z,63.60
2018-03-02T07:38:47.911Z,63.30
2018-03-02T07:41:16.175Z,63.50
2018-03-02T07:43:45.219Z,63.30
2018-03-02T07:46:13.504Z,63.30
2018-03-02T07:48:41.925Z,62.90
2018-03-02T07:51:10.944Z,62.60
2018-03-02T07:53:39.274Z,62.60
2018-03-02T07:56:07.541Z,62.70
2018-03-02T07:58:35.857Z,62.70
2018-03-02T08:01:04.493Z,62.20
2018-03-02T08:03:32.827Z,62.10
2018-03-02T08:06:01.106Z,61.60
2018-03-02T08:08:29.416Z,61.50
2018-03-02T08:10:57.719Z,61.40
2018-03-02T08:13:26.035Z,61.40
2018-03-02T08:15:55.184Z,61.30
2018-03-02T08:18:24.747Z,61.50
2018-03-02T08:20:53.144Z,61.50
2018-03-02T08:23:21.592Z,61.20
2018-03-02T08:25:49.869Z,61.20
2018-03-02T08:28:18.180Z,61.40
2018-03-02T08:30:46.444Z,60.80
2018-03-02T08:33:14.722Z,60.70
2018-03-02T08:35:42.991Z,60.80
2018-03-02T08:38:11.270Z,60.10
2018-03-02T08:40:39.546Z,60.00
2018-03-02T08:43:07.821Z,59.90
2018-03-02T08:45:36.147Z,59.90
2018-03-02T08:48:04.410Z,59.80
2018-03-02T08:50:32.826Z,59.60
2018-03-02T08:53:01.080Z,59.50
2018-03-02T08:55:29.386Z,60.20
2018-03-02T08:57:58.152Z,59.40
2018-03-02T09:00:27.033Z,59.30
2018-03-02T09:02:55.362Z,59.60
2018-03-02T09:05:24.402Z,59.60
2018-03-02T09:07:52.676Z,59.70
2018-03-02T09:10:20.942Z,59.50
2018-03-02T09:12:49.218Z,59.70
2018-03-02T09:15:18.266Z,59.40
2018-03-02T09:17:46.638Z,59.40
2018-03-02T09:20:14.928Z,59.90
2018-03-02T09:22:43.178Z,58.80
2018-03-02T09:25:11.499Z,58.30
2018-03-02T09:27:39.816Z,58.10
2018-03-02T09:30:08.892Z,57.70
2018-03-02T09:32:37.151Z,57.70
2018-03-02T09:35:05.538Z,57.50
2018-03-02T09:37:33.808Z,57.50
2018-03-02T09:40:02.098Z,57.80
2018-03-02T09:42:30.431Z,58.00
2018-03-02T09:44:59.475Z,57.80
2018-03-02T09:47:27.856Z,57.80
2018-03-02T09:49:56.144Z,57.60
2018-03-02T09:52:24.422Z,57.50
2018-03-02T09:54:52.674Z,56.90
2018-03-02T09:57:20.955Z,56.80
2018-03-02T09:59:49.266Z,56.60
2018-03-02T10:02:17.548Z,56.80
2018-03-02T10:04:45.836Z,56.70
2018-03-02T10:07:14.095Z,56.60
2018-03-02T10:09:42.361Z,56.30
2018-03-02T10:12:10.647Z,56.20
2018-03-02T10:14:38.897Z,55.90
2018-03-02T10:17:08.038Z,55.90
2018-03-02T10:19:36.306Z,55.90
2018-03-02T10:22:04.587Z,55.70
2018-03-02T10:24:32.882Z,55.50
2018-03-02T10:27:01.207Z,55.70
2018-03-02T10:29:30.246Z,55.90
2018-03-02T10:31:58.511Z,55.90
2018-03-02T10:34:26.838Z,55.40
2018-03-02T10:36:55.107Z,55.50
2018-03-02T10:39:23.398Z,55.40
2018-03-02T10:41:51.678Z,55.20
2018-03-02T10:44:19.953Z,55.00
2018-03-02T10:46:48.231Z,55.20
2018-03-02T10:49:16.558Z,55.00
2018-03-02T10:51:45.647Z,54.60
2018-03-02T10:54:14.702Z,54.90
2018-03-02T10:56:42.967Z,54.40
2018-03-02T10:59:11.283Z,54.40
2018-03-02T11:01:45.062Z,54.10
2018-03-02T11:04:18.190Z,53.50
2018-03-02T11:06:46.803Z,53.30
2018-03-02T11:09:15.288Z,53.50
2018-03-02T11:11:43.582Z,53.80
2018-03-02T11:14:12.639Z,53.50
2018-03-02T11:16:40.915Z,53.40
2018-03-02T11:19:09.196Z,53.50
2018-03-02T11:21:37.460Z,53.60
2018-03-02T11:24:06.247Z,53.80
2018-03-02T11:26:34.599Z,53.80
2018-03-02T11:29:03.688Z,53.30
2018-03-02T11:31:31.934Z,53.30
2018-03-02T11:34:00.213Z,52.90
2018-03-02T11:36:28.454Z,53.00
2018-03-02T11:38:56.734Z,52.70
2018-03-02T11:41:25.024Z,52.50
2018-03-02T11:43:53.293Z,52.50
2018-03-02T11:46:21.541Z,52.30
2018-03-02T11:48:49.853Z,52.30
2018-03-02T11:51:18.902Z,52.20
2018-03-02T11:53:47.183Z,52.20
2018-03-02T11:56:15.430Z,52.20
2018-03-02T11:58:43.727Z,51.40
2018-03-02T12:01:12.354Z,50.80
2018-03-02T12:03:40.850Z,50.70
2018-03-02T12:06:09.222Z,50.80
2018-03-02T12:08:38.068Z,51.40
2018-03-02T12:11:06.665Z,50.70
2018-03-02T12:13:35.290Z,50.60
2018-03-02T12:16:04.161Z,50.50
2018-03-02T12:18:32.435Z,50.60
2018-03-02T12:21:00.724Z,50.80
2018-03-02T12:23:28.997Z,50.50
2018-03-02T12:25:57.243Z,50.30
2018-03-02T12:28:25.514Z,50.00
2018-03-02T12:30:53.757Z,50.10
2018-03-02T12:33:22.006Z,49.90
2018-03-02T12:35:50.318Z,50.40
2018-03-02T12:38:18.586Z,50.50
2018-03-02T12:40:46.895Z,50.80
2018-03-02T12:43:15.176Z,50.70
2018-03-02T12:45:43.391Z,50.20
2018-03-02T12:48:11.662Z,50.20
2018-03-02T12:50:40.694Z,49.90
2018-03-02T12:53:08.946Z,49.90
2018-03-02T12:55:37.230Z,50.10
2018-03-02T12:58:05.484Z,49.70
2018-03-02T13:00:34.730Z,49.80
2018-03-02T13:03:03.466Z,49.80
2018-03-02T13:05:32.153Z,49.90
2018-03-02T13:08:00.510Z,49.70
2018-03-02T13:10:28.805Z,49.50
2018-03-02T13:12:57.157Z,49.80
2018-03-02T13:15:25.446Z,49.80
2018-03-02T13:17:53.680Z,49.60
2018-03-02T13:20:22.727Z,49.70
2018-03-02T13:22:50.978Z,49.70
2018-03-02T13:25:19.237Z,49.90
2018-03-02T13:28:00.747Z,49.90
2018-03-02T13:30:29.055Z,49.90
2018-03-02T13:33:09.130Z,49.70
2018-03-02T13:35:37.393Z,49.70
2018-03-02T13:38:05.686Z,49.70
2018-03-02T13:40:45.978Z,49.60
2018-03-02T13:43:15.014Z,49.40
2018-03-02T13:45:43.295Z,49.40
2018-03-02T13:51:11.175Z,49.40
2018-03-02T13:53:39.435Z,49.60
2018-03-02T13:56:07.778Z,49.00
2018-03-02T13:58:36.042Z,49.40
2018-03-02T14:01:04.309Z,48.60
2018-03-02T14:03:44.394Z,48.50
2018-03-02T14:06:12.672Z,48.40
2018-03-02T14:08:40.920Z,48.00
2018-03-02T14:11:09.195Z,48.10
2018-03-02T14:13:38.246Z,47.90
2018-03-02T14:16:06.555Z,47.90
2018-03-02T14:18:35.594Z,47.60
2018-03-02T14:21:03.919Z,47.60
2018-03-02T14:23:33.702Z,47.90
2018-03-02T14:26:01.961Z,47.80
2018-03-02T14:28:30.220Z,47.80
2018-03-02T14:30:59.262Z,47.70
2018-03-02T14:33:27.547Z,47.70
2018-03-02T14:35:55.815Z,47.20
2018-03-02T14:38:24.065Z,47.30
2018-03-02T14:40:52.349Z,47.50
2018-03-02T14:43:20.638Z,47.30
2018-03-02T14:45:48.938Z,47.50
2018-03-02T14:48:17.252Z,47.50
2018-03-02T14:50:45.507Z,47.40
2018-03-02T14:53:13.763Z,47.40
2018-03-02T14:55:42.025Z,47.30
2018-03-02T14:58:10.286Z,47.20
2018-03-02T15:00:38.566Z,47.30
2018-03-02T15:03:06.857Z,47.00
2018-03-02T15:05:35.975Z,46.70
2018-03-02T15:08:04.282Z,46.70
2018-03-02T15:10:32.565Z,46.70
2018-03-02T15:13:00.830Z,46.70
2018-03-02T15:15:29.106Z,46.90
2018-03-02T15:17:57.367Z,47.10
2018-03-02T15:20:27.686Z,47.10
2018-03-02T15:22:55.975Z,47.20
2018-03-02T15:25:24.995Z,47.70
2018-03-02T15:27:53.273Z,47.70
2018-03-02T15:30:21.524Z,47.70
2018-03-02T15:32:50.547Z,48.40
2018-03-02T15:35:18.847Z,47.90
2018-03-02T15:37:47.127Z,48.10
2018-03-02T15:40:15.829Z,48.30
2018-03-02T15:42:44.288Z,48.50
2018-03-02T15:45:12.563Z,48.50
2018-03-02T15:47:40.880Z,48.50
2018-03-02T15:50:09.137Z,48.50
2018-03-02T15:52:37.423Z,48.50
2018-03-02T15:55:05.676Z,48.70
2018-03-02T15:57:33.960Z,48.80
2018-03-02T16:00:03.059Z,49.00
2018-03-02T16:02:31.392Z,49.00
2018-03-02T16:04:59.679Z,49.20
2018-03-02T16:07:27.940Z,49.20
2018-03-02T16:09:56.193Z,49.20
2018-03-02T16:12:25.514Z,49.20
2018-03-02T16:14:53.762Z,49.20
2018-03-02T16:17:22.789Z,49.00
2018-03-02T16:19:51.074Z,49.00
2018-03-02T16:22:19.445Z,49.00
2018-03-02T16:24:48.151Z,49.10
2018-03-02T16:27:16.621Z,49.20
2018-03-02T16:29:44.881Z,49.30
2018-03-02T16:32:13.144Z,49.20
2018-03-02T16:34:42.200Z,49.00
2018-03-02T16:37:10.464Z,49.10
2018-03-02T16:39:38.740Z,48.90
2018-03-02T16:42:07.007Z,49.00
2018-03-02T16:44:35.296Z,49.00
2018-03-02T16:47:03.610Z,49.10
2018-03-02T16:49:31.982Z,49.30
2018-03-02T16:52:00.292Z,49.50
2018-03-02T16:54:28.767Z,49.70
2018-03-02T16:56:57.006Z,49.70
2018-03-02T16:59:25.336Z,49.60
2018-03-02T17:01:53.578Z,49.50
2018-03-02T17:04:21.848Z,49.60
2018-03-02T17:06:50.094Z,49.70
2018-03-02T17:09:19.144Z,50.10
2018-03-02T17:11:47.393Z,50.10
2018-03-02T17:14:15.714Z,50.70
2018-03-02T17:16:44.677Z,50.60
2018-03-02T17:19:12.938Z,50.60
2018-03-02T17:21:41.990Z,50.70
2018-03-02T17:24:10.267Z,50.70
2018-03-02T17:26:38.521Z,50.80
2018-03-02T17:29:06.790Z,50.90
2018-03-02T17:31:35.035Z,51.00
2018-03-02T17:34:03.307Z,51.30
2018-03-02T17:36:31.674Z,51.60
2018-03-02T17:38:59.930Z,51.60
2018-03-02T17:41:28.182Z,51.80
2018-03-02T17:43:56.450Z,51.50
2018-03-02T17:46:25.458Z,51.40
2018-03-02T17:48:54.022Z,51.40
2018-03-02T17:51:22.811Z,51.50
2018-03-02T17:53:51.499Z,51.70
2018-03-02T17:56:20.912Z,51.90
2018-03-02T17:58:49.565Z,51.90
2018-03-02T18:01:18.261Z,51.90
2018-03-02T18:03:47.594Z,52.00
2018-03-02T18:06:17.059Z,51.90
2018-03-02T18:08:45.626Z,51.90
2018-03-02T18:11:13.971Z,51.90
2018-03-02T18:13:43.384Z,52.10
2018-03-02T18:16:12.997Z,51.70
2018-03-02T18:18:41.274Z,51.70
2018-03-02T18:21:10.888Z,51.50
2018-03-02T18:23:40.074Z,52.00
2018-03-02T18:26:08.798Z,51.30
2018-03-02T18:28:37.418Z,51.30
2018-03-02T18:31:05.963Z,51.00
2018-03-02T18:33:34.439Z,50.30
2018-03-02T18:36:03.628Z,50.30
2018-03-02T18:38:31.922Z,50.40
2018-03-02T18:41:00.546Z,50.50
2018-03-02T18:43:28.962Z,50.50
2018-03-02T18:45:57.599Z,50.50
2018-03-02T18:48:25.899Z,50.50
2018-03-02T18:50:54.939Z,50.90
2018-03-02T18:53:23.215Z,50.90
2018-03-02T18:55:51.539Z,51.00
2018-03-02T18:58:19.962Z,50.90
2018-03-02T19:00:48.655Z,51.10
2018-03-02T19:03:17.942Z,51.20
2018-03-02T19:05:47.425Z,51.20
2018-03-02T19:08:15.809Z,51.20
2018-03-02T19:10:44.449Z,50.90
2018-03-02T19:13:13.093Z,50.80
2018-03-02T19:15:47.323Z,50.90
2018-03-02T19:18:20.244Z,51.10
2018-03-02T19:20:48.508Z,51.00
2018-03-02T19:23:17.564Z,51.10
2018-03-02T19:25:45.818Z,51.20
2018-03-02T19:28:14.132Z,51.00
2018-03-02T19:30:42.482Z,51.10
2018-03-02T19:33:10.751Z,51.20
2018-03-02T19:35:39.047Z,51.10
2018-03-02T19:38:07.327Z,51.30
2018-03-02T19:40:35.581Z,51.50
2018-03-02T19:43:03.870Z,51.40
2018-03-02T19:45:32.148Z,51.50
2018-03-02T19:48:00.413Z,51.40
2018-03-02T19:50:29.458Z,51.70
2018-03-02T19:52:57.731Z,51.70
2018-03-02T19:55:25.975Z,51.90
2018-03-02T19:57:54.239Z,52.60
2018-03-02T20:00:22.481Z,52.50
2018-03-02T20:02:50.853Z,52.60
2018-03-02T20:05:19.099Z,53.90
2018-03-02T20:07:48.147Z,53.20
2018-03-02T20:10:16.389Z,53.20
2018-03-02T20:12:44.658Z,53.70
2018-03-02T20:15:12.902Z,54.40
2018-03-02T20:17:41.182Z,55.20
2018-03-02T20:20:09.501Z,55.40
2018-03-02T20:22:38.603Z,56.20
2018-03-02T20:25:06.876Z,56.20
2018-03-02T20:27:35.888Z,57.40
2018-03-02T20:30:04.155Z,57.40
2018-03-02T20:32:32.429Z,57.60
2018-03-02T20:35:01.468Z,58.60
2018-03-02T20:37:29.730Z,58.60
2018-03-02T20:39:58.016Z,59.50
2018-03-02T20:42:26.334Z,60.90
2018-03-02T20:44:54.767Z,63.60
2018-03-02T20:47:23.786Z,65.50
2018-03-02T20:49:52.051Z,65.60
2018-03-02T20:52:20.390Z,67.50
2018-03-02T20:54:48.659Z,68.80
2018-03-02T20:57:16.914Z,69.90
2018-03-02T20:59:45.205Z,70.50
2018-03-02T21:02:13.450Z,70.90
2018-03-02T21:04:41.719Z,71.90
2018-03-02T21:07:10.778Z,73.50
2018-03-02T21:09:39.149Z,73.50
2018-03-02T21:12:07.411Z,78.20
2018-03-02T21:14:35.686Z,81.70
2018-03-02T21:17:03.936Z,83.20
2018-03-02T21:19:32.993Z,87.70
2018-03-02T21:22:01.285Z,87.70
2018-03-02T21:24:29.534Z,89.80
2018-03-02T21:26:58.051Z,91.10
2018-03-02T21:29:27.113Z,93.40
2018-03-02T21:31:55.372Z,93.40
2018-03-02T21:34:23.847Z,94.20
2018-03-02T21:36:51.959Z,95.20
2018-03-02T21:39:20.215Z,95.90
2018-03-02T21:41:48.487Z,96.40
2018-03-02T21:44:16.927Z,97.60
2018-03-02T21:46:45.211Z,98.30
2018-03-02T21:49:15.018Z,99.50
2018-03-02T21:51:43.287Z,99.50
2018-03-02T21:54:11.567Z,99.80
2018-03-02T21:56:39.878Z,99.90
2018-03-02T21:59:08.158Z,99.90
2018-03-02T22:01:37.213Z,99.90
2018-03-02T22:04:05.482Z,99.90
2018-03-02T22:06:33.759Z,99.90
2018-03-02T22:09:02.060Z,99.90
2018-03-02T22:11:30.334Z,99.90
2018-03-02T22:13:58.626Z,99.90
2018-03-02T22:16:26.999Z,99.90
2018-03-02T22:18:55.280Z,99.90
2018-03-02T22:21:23.666Z,99.90
2018-03-02T22:23:51.956Z,99.90
2018-03-02T22:26:21.042Z,99.90
2018-03-02T22:28:49.335Z,99.90
2018-03-02T22:31:17.616Z,99.90
2018-03-02T22:33:45.877Z,99.90
2018-03-02T22:36:14.163Z,99.90
2018-03-02T22:38:42.454Z,99.90
2018-03-02T22:41:10.729Z,99.90
2018-03-02T22:43:39.030Z,99.90
2018-03-02T22:46:07.331Z,99.90
2018-03-02T22:48:36.365Z,99.90
2018-03-02T22:51:04.642Z,99.90
2018-03-02T22:53:32.922Z,99.90
2018-03-02T22:56:01.183Z,99.90
2018-03-02T23:01:10.984Z,99.90
2018-03-02T23:03:39.261Z,99.90
2018-03-02T23:06:07.514Z,99.90
2018-03-02T23:08:35.800Z,99.90
2018-03-02T23:11:04.064Z,99.90
2018-03-02T23:13:33.203Z,99.90
2018-03-02T23:16:01.455Z,99.90
2018-03-02T23:18:29.728Z,99.90
2018-03-02T23:20:58.043Z,99.90
2018-03-02T23:23:26.306Z,99.90
2018-03-02T23:25:54.559Z,99.90
2018-03-02T23:28:23.611Z,99.90
2018-03-02T23:30:51.868Z,99.90
2018-03-02T23:33:20.149Z,99.90
2018-03-02T23:35:48.478Z,99.90
2018-03-02T23:38:16.811Z,99.90
2018-03-02T23:40:45.063Z,99.90
2018-03-02T23:43:14.106Z,99.90
2018-03-02T23:45:42.401Z,99.90
2018-03-02T23:48:10.671Z,99.90
2018-03-02T23:50:38.928Z,99.90
2018-03-02T23:53:07.198Z,99.90
2018-03-02T23:55:35.467Z,99.90
2018-03-02T23:58:03.740Z,99.90
